Time;durP1;ratioP1;P1;durP2;ratioP2;P2;SDS_P1;SDS_P2;PMS_P1;PMS_P2;Temp;Humidity;BMP_temperature;BMP_pressure;BME280_temperature;BME280_humidity;BME280_pressure;Samples;Min_cycle;Max_cycle;Signal;HPM_P1;HPM_P2
2022/04/13 00:01:34;;;;;;;23.48;13.35;;;;;;;;;;6106797;29;20082;-88
2022/04/13 00:04:34;;;;;;;28.42;11.63;;;;;;;;;;6124424;29;20031;-88
2022/04/13 00:07:35;;;;;;;26.58;11.93;;;;;;;;;;6133344;29;20038;-88
2022/04/13 00:10:35;;;;;;;28.27;11.68;;;;;;;;;;6150151;29;20031;-88
2022/04/13 00:13:36;;;;;;;29.10;12.45;;;;;;;;;;6133046;29;20467;-88
2022/04/13 00:16:36;;;;;;;27.10;12.90;;;;;;;;;;6130753;29;20027;-88
2022/04/13 00:19:37;;;;;;;21.17;12.00;;;;;;;;;;6132904;29;20115;-88
2022/04/13 00:22:37;;;;;;;22.95;10.95;;;;;;;;;;6148874;29;20325;-88
2022/04/13 00:25:39;;;;;;;27.13;10.70;;;;;;;;;;6131701;29;20035;-88
2022/04/13 00:28:39;;;;;;;;;;;;;;;;;;6149936;29;20066;-88
2022/04/13 00:31:39;;;;;;;28.42;12.57;;;;;;;;;;6148608;29;19911;-88
2022/04/13 00:34:40;;;;;;;28.65;12.63;;;;;;;;;;6132696;29;20055;-89
2022/04/13 00:37:41;;;;;;;25.77;13.82;;;;;;;;;;6108139;29;20111;-88
2022/04/13 00:40:41;;;;;;;26.75;12.18;;;;;;;;;;6114114;29;20087;-88
2022/04/13 00:43:42;;;;;;;26.30;11.68;;;;;;;;;;6117439;29;20372;-88
2022/04/13 00:46:42;;;;;;;25.20;12.10;;;;;;;;;;6132378;29;20082;-89
2022/04/13 00:49:43;;;;;;;23.33;11.98;;;;;;;;;;6131465;29;20031;-88
2022/04/13 00:52:44;;;;;;;23.40;11.30;;;;;;;;;;6116966;29;20032;-88
2022/04/13 00:55:45;;;;;;;28.90;12.23;;;;;;;;;;6131272;29;20027;-88
2022/04/13 00:58:47;;;;;;;21.98;11.65;;;;;;;;;;6131870;29;20106;-88
2022/04/13 01:01:48;;;;;;;23.20;10.63;;;;;;;;;;6148524;29;20060;-88
2022/04/13 01:04:50;;;;;;;25.00;11.43;;;;;;;;;;6148020;29;20558;-89
2022/04/13 01:07:51;;;;;;;22.40;9.80;;;;;;;;;;6131132;29;20038;-88
2022/04/13 01:10:51;;;;;;;22.60;11.20;;;;;;;;;;6123732;29;20063;-89
2022/04/13 01:13:54;;;;;;;21.48;9.88;;;;;;;;;;6129296;29;20436;-88
2022/04/13 01:16:54;;;;;;;27.88;12.40;;;;;;;;;;6116102;29;20460;-88
2022/04/13 01:19:56;;;;;;;21.58;10.70;;;;;;;;;;6107780;29;20022;-89
2022/04/13 01:22:56;;;;;;;27.67;11.43;;;;;;;;;;6137263;29;20030;-88
2022/04/13 01:25:56;;;;;;;25.20;12.02;;;;;;;;;;6131590;29;20031;-88
2022/04/13 01:28:56;;;;;;;28.90;11.70;;;;;;;;;;6149134;29;20078;-89
2022/04/13 01:31:58;;;;;;;24.70;12.88;;;;;;;;;;6125601;29;20046;-89
2022/04/13 01:34:58;;;;;;;32.08;11.75;;;;;;;;;;6106470;29;20465;-88
2022/04/13 01:37:58;;;;;;;26.85;12.25;;;;;;;;;;6107128;29;20156;-88
2022/04/13 01:40:59;;;;;;;25.05;11.68;;;;;;;;;;6113624;29;20046;-88
2022/04/13 01:43:59;;;;;;;27.55;12.80;;;;;;;;;;6137181;29;20035;-89
2022/04/13 01:46:59;;;;;;;23.50;12.05;;;;;;;;;;6131588;29;20019;-89
2022/04/13 01:49:59;;;;;;;32.60;11.75;;;;;;;;;;6130982;29;20027;-89
2022/04/13 01:53:00;;;;;;;28.05;11.43;;;;;;;;;;6133375;29;20036;-88
2022/04/13 01:56:00;;;;;;;24.88;11.55;;;;;;;;;;6124017;29;20020;-89
2022/04/13 01:59:01;;;;;;;24.05;11.23;;;;;;;;;;6147866;29;20025;-88
2022/04/13 02:02:04;;;;;;;20.85;10.75;;;;;;;;;;6125126;29;20038;-89
2022/04/13 02:05:05;;;;;;;25.75;12.07;;;;;;;;;;6127506;29;20034;-89
2022/04/13 02:08:05;;;;;;;24.33;12.15;;;;;;;;;;6130654;29;20027;-89
2022/04/13 02:11:06;;;;;;;33.53;13.50;;;;;;;;;;6122851;29;20031;-89
2022/04/13 02:14:07;;;;;;;23.70;12.45;;;;;;;;;;6127976;29;20024;-88
2022/04/13 02:17:07;;;;;;;21.95;13.13;;;;;;;;;;6147567;29;20505;-88
2022/04/13 02:20:08;;;;;;;29.65;13.75;;;;;;;;;;6129467;29;20029;-88
2022/04/13 02:23:08;;;;;;;24.77;12.30;;;;;;;;;;6146241;29;20019;-88
2022/04/13 02:26:09;;;;;;;25.77;12.55;;;;;;;;;;6146522;28;20375;-88
2022/04/13 02:29:09;;;;;;;22.25;12.00;;;;;;;;;;6146900;29;20478;-88
2022/04/13 02:32:09;;;;;;;26.60;13.13;;;;;;;;;;6128417;29;20118;-87
2022/04/13 02:35:10;;;;;;;21.37;10.93;;;;;;;;;;6122854;29;20072;-88
2022/04/13 02:38:10;;;;;;;23.60;11.93;;;;;;;;;;6112832;29;20263;-87
2022/04/13 02:41:10;;;;;;;21.67;12.48;;;;;;;;;;6128844;29;20032;-88
2022/04/13 02:44:10;;;;;;;26.98;11.88;;;;;;;;;;6118707;29;20073;-87
2022/04/13 02:47:11;;;;;;;25.50;12.95;;;;;;;;;;6108414;29;20028;-87
2022/04/13 02:50:11;;;;;;;28.95;13.30;;;;;;;;;;6123409;29;20027;-87
2022/04/13 02:53:11;;;;;;;33.25;15.40;;;;;;;;;;6122801;29;20035;-87
2022/04/13 02:56:11;;;;;;;21.50;12.48;;;;;;;;;;6123102;29;20023;-87
2022/04/13 02:59:12;;;;;;;24.23;13.05;;;;;;;;;;6128499;29;20219;-87
2022/04/13 03:02:14;;;;;;;23.95;11.77;;;;;;;;;;6128877;29;20027;-87
2022/04/13 03:05:14;;;;;;;23.25;13.27;;;;;;;;;;6111213;29;20015;-87
2022/04/13 03:08:15;;;;;;;29.95;13.23;;;;;;;;;;6131908;29;20024;-87
2022/04/13 03:11:15;;;;;;;22.83;11.93;;;;;;;;;;6116073;29;20034;-88
2022/04/13 03:14:16;;;;;;;26.65;12.95;;;;;;;;;;6118355;29;20015;-87
2022/04/13 03:17:17;;;;;;;24.67;12.40;;;;;;;;;;6126290;29;20023;-87
2022/04/13 03:20:18;;;;;;;26.60;12.68;;;;;;;;;;6129039;29;20016;-87
2022/04/13 03:23:18;;;;;;;25.88;11.27;;;;;;;;;;6128506;29;20521;-87
2022/04/13 03:26:18;;;;;;;24.65;11.93;;;;;;;;;;6145495;28;20031;-87
2022/04/13 03:29:18;;;;;;;25.45;12.90;;;;;;;;;;6129823;29;20026;-87
2022/04/13 03:32:19;;;;;;;20.88;12.50;;;;;;;;;;6129642;29;20364;-87
2022/04/13 03:35:19;;;;;;;28.38;12.05;;;;;;;;;;6110779;29;20123;-87
2022/04/13 03:38:19;;;;;;;22.92;12.18;;;;;;;;;;6106338;29;20024;-87
2022/04/13 03:41:20;;;;;;;28.35;12.13;;;;;;;;;;6115847;29;20490;-87
2022/04/13 03:44:20;;;;;;;21.83;11.52;;;;;;;;;;6123421;29;20114;-87
2022/04/13 03:47:20;;;;;;;27.98;13.07;;;;;;;;;;6148302;28;20089;-86
2022/04/13 03:50:21;;;;;;;27.02;14.50;;;;;;;;;;6151109;29;20019;-86
2022/04/13 03:53:21;;;;;;;21.83;12.32;;;;;;;;;;6132703;29;20106;-87
2022/04/13 03:56:21;;;;;;;26.48;13.32;;;;;;;;;;6137493;29;20019;-86
2022/04/13 03:59:22;;;;;;;32.17;13.90;;;;;;;;;;6110061;29;20038;-86
2022/04/13 04:02:22;;;;;;;28.95;13.65;;;;;;;;;;6109995;29;20331;-86
2022/04/13 04:05:23;;;;;;;21.63;12.23;;;;;;;;;;6127320;29;20024;-86
2022/04/13 04:08:25;;;;;;;21.15;11.70;;;;;;;;;;6110288;29;20270;-86
2022/04/13 04:11:26;;;;;;;25.25;11.45;;;;;;;;;;6122056;29;20024;-86
2022/04/13 04:14:26;;;;;;;25.42;11.65;;;;;;;;;;6125653;29;20020;-86
2022/04/13 04:17:26;;;;;;;26.83;12.48;;;;;;;;;;6130621;29;20391;-86
2022/04/13 04:20:27;;;;;;;26.20;12.98;;;;;;;;;;6133562;29;20023;-86
2022/04/13 04:23:27;;;;;;;21.95;11.60;;;;;;;;;;6149323;29;20397;-86
2022/04/13 04:26:27;;;;;;;25.88;12.60;;;;;;;;;;6150102;28;20023;-86
2022/04/13 04:29:27;;;;;;;20.50;10.70;;;;;;;;;;6128308;29;20102;-86
2022/04/13 04:32:28;;;;;;;25.37;12.07;;;;;;;;;;6148407;29;20039;-87
2022/04/13 04:35:28;;;;;;;20.75;12.25;;;;;;;;;;6147201;28;20706;-86
2022/04/13 04:38:32;;;;;;;24.50;11.13;;;;;;;;;;6135806;29;20037;-86
2022/04/13 04:41:32;;;;;;;21.00;13.20;;;;;;;;;;6142096;29;20015;-86
2022/04/13 04:44:32;;;;;;;21.77;10.50;;;;;;;;;;6130558;29;20023;-86
2022/04/13 04:47:32;;;;;;;25.50;12.13;;;;;;;;;;6113388;29;20271;-86
2022/04/13 04:50:34;;;;;;;22.60;12.73;;;;;;;;;;6124668;29;20063;-86
2022/04/13 04:53:34;;;;;;;21.35;11.65;;;;;;;;;;6144840;28;20020;-86
2022/04/13 04:56:35;;;;;;;20.23;12.40;;;;;;;;;;6137685;29;20034;-86
2022/04/13 04:59:36;;;;;;;23.42;12.65;;;;;;;;;;6128943;29;20034;-86
2022/04/13 05:02:37;;;;;;;22.25;11.50;;;;;;;;;;6133054;29;20030;-87
2022/04/13 05:05:39;;;;;;;18.33;10.90;;;;;;;;;;6150107;28;20023;-87
2022/04/13 05:08:40;;;;;;;22.83;10.80;;;;;;;;;;6139887;28;20023;-88
2022/04/13 05:11:40;;;;;;;22.98;12.20;;;;;;;;;;6120939;28;20382;-87
2022/04/13 05:14:40;;;;;;;22.30;12.05;;;;;;;;;;6126482;29;20099;-87
2022/04/13 05:17:41;;;;;;;21.40;11.37;;;;;;;;;;6129562;29;20016;-88
2022/04/13 05:20:41;;;;;;;20.55;10.85;;;;;;;;;;6135310;28;20290;-88
2022/04/13 05:23:42;;;;;;;19.63;10.52;;;;;;;;;;6117456;28;20509;-89
2022/04/13 05:26:42;;;;;;;19.55;10.27;;;;;;;;;;6130386;29;20023;-88
2022/04/13 05:29:43;;;;;;;16.48;10.32;;;;;;;;;;6131264;29;20031;-88
2022/04/13 05:32:50;;;;;;;20.15;10.75;;;;;;;;;;6135259;28;20031;-88
2022/04/13 05:35:50;;;;;;;21.23;10.95;;;;;;;;;;6138052;28;20457;-88
2022/04/13 05:38:51;;;;;;;17.53;9.60;;;;;;;;;;6146008;28;20027;-88
2022/04/13 05:41:51;;;;;;;21.33;9.50;;;;;;;;;;6140987;28;20058;-89
2022/04/13 05:44:51;;;;;;;16.60;8.70;;;;;;;;;;6118080;29;20614;-88
2022/04/13 05:47:52;;;;;;;21.57;10.33;;;;;;;;;;6130131;28;20051;-88
2022/04/13 05:50:52;;;;;;;17.00;10.53;;;;;;;;;;6133483;28;20031;-88
2022/04/13 05:53:52;;;;;;;20.83;10.13;;;;;;;;;;6145034;28;20016;-88
2022/04/13 05:56:53;;;;;;;16.90;8.47;;;;;;;;;;6131869;29;20031;-89
2022/04/13 05:59:53;;;;;;;13.23;7.83;;;;;;;;;;6133667;29;20015;-88
2022/04/13 06:02:54;;;;;;;16.87;8.90;;;;;;;;;;6131968;28;20019;-88
2022/04/13 06:05:54;;;;;;;14.57;9.10;;;;;;;;;;6150095;28;20030;-89
2022/04/13 06:08:54;;;;;;;18.07;9.27;;;;;;;;;;6131736;28;20638;-89
2022/04/13 06:11:54;;;;;;;15.33;9.37;;;;;;;;;;6135319;29;20024;-89
2022/04/13 06:15:02;;;;;;;18.20;9.17;;;;;;;;;;6122760;29;20016;-89
2022/04/13 06:18:02;;;;;;;19.00;9.63;;;;;;;;;;6134769;29;20023;-89
2022/04/13 06:21:03;;;;;;;13.90;8.67;;;;;;;;;;6132013;28;20027;-89
2022/04/13 06:24:03;;;;;;;18.20;8.87;;;;;;;;;;6126479;29;20100;-89
2022/04/13 06:27:04;;;;;;;18.60;9.73;;;;;;;;;;6134565;28;20035;-89
2022/04/13 06:30:04;;;;;;;15.63;9.77;;;;;;;;;;6133976;28;20019;-89
2022/04/13 06:33:05;;;;;;;15.40;9.30;;;;;;;;;;6127493;28;20087;-89
2022/04/13 06:36:06;;;;;;;20.33;11.83;;;;;;;;;;6139948;28;20040;-88
2022/04/13 06:39:06;;;;;;;14.93;8.00;;;;;;;;;;6121165;29;20397;-89
2022/04/13 06:42:06;;;;;;;16.00;8.97;;;;;;;;;;6121863;29;20030;-89
2022/04/13 06:45:07;;;;;;;14.47;8.10;;;;;;;;;;6128769;29;20027;-89
2022/04/13 06:48:08;;;;;;;15.88;8.85;;;;;;;;;;6133131;29;20019;-89
2022/04/13 06:51:08;;;;;;;15.55;7.03;;;;;;;;;;6148884;29;20078;-89
2022/04/13 06:54:08;;;;;;;12.67;7.27;;;;;;;;;;6140657;28;20059;-88
2022/04/13 06:57:09;;;;;;;15.97;7.00;;;;;;;;;;6131875;29;20380;-89
2022/04/13 07:00:10;;;;;;;12.43;7.13;;;;;;;;;;6130132;28;20487;-89
2022/04/13 07:03:11;;;;;;;14.20;6.60;;;;;;;;;;6133796;28;20078;-89
2022/04/13 07:06:11;;;;;;;12.13;6.03;;;;;;;;;;6143809;28;20029;-89
2022/04/13 07:09:11;;;;;;;13.90;6.43;;;;;;;;;;6166019;28;20023;-89
2022/04/13 07:12:11;;;;;;;11.27;5.53;;;;;;;;;;6169534;28;20031;-89
2022/04/13 07:15:14;;;;;;;8.47;4.80;;;;;;;;;;6156999;28;20055;-89
2022/04/13 07:18:14;;;;;;;8.05;4.47;;;;;;;;;;6171575;28;20027;-89
2022/04/13 07:21:14;;;;;;;11.40;4.60;;;;;;;;;;6166826;28;20003;-89
2022/04/13 07:24:14;;;;;;;11.23;4.73;;;;;;;;;;6171954;28;20478;-89
2022/04/13 07:27:15;;;;;;;7.17;4.97;;;;;;;;;;6156405;28;20030;-89
2022/04/13 07:30:15;;;;;;;9.73;4.53;;;;;;;;;;6154186;29;20019;-89
2022/04/13 07:33:15;;;;;;;8.50;4.57;;;;;;;;;;6154953;29;20455;-89
2022/04/13 07:36:16;;;;;;;10.47;4.33;;;;;;;;;;6154112;29;20111;-89
2022/04/13 07:39:16;;;;;;;12.57;5.10;;;;;;;;;;6147666;28;20054;-89
2022/04/13 07:42:20;;;;;;;9.60;5.13;;;;;;;;;;6130441;29;20020;-90
2022/04/13 07:45:20;;;;;;;9.45;4.03;;;;;;;;;;6129419;28;20114;-89
2022/04/13 07:48:21;;;;;;;11.10;4.57;;;;;;;;;;6144407;29;20077;-89
2022/04/13 07:51:21;;;;;;;8.03;4.03;;;;;;;;;;6128974;28;20050;-90
2022/04/13 07:54:21;;;;;;;5.47;3.77;;;;;;;;;;6146609;28;20026;-89
2022/04/13 07:57:21;;;;;;;7.90;4.47;;;;;;;;;;6146705;28;20122;-90
2022/04/13 08:00:22;;;;;;;9.33;4.87;;;;;;;;;;6120034;28;20027;-89
2022/04/13 08:03:22;;;;;;;12.97;4.60;;;;;;;;;;6114485;28;20020;-90
2022/04/13 08:06:22;;;;;;;8.30;4.43;;;;;;;;;;6128797;28;20023;-89
2022/04/13 08:09:23;;;;;;;9.70;4.63;;;;;;;;;;6114761;28;20105;-88
2022/04/13 08:12:26;;;;;;;8.80;3.63;;;;;;;;;;6127154;28;20023;-89
2022/04/13 08:15:26;;;;;;;7.75;4.30;;;;;;;;;;6141376;28;20031;-89
2022/04/13 08:18:27;;;;;;;10.50;4.83;;;;;;;;;;6123990;29;20553;-89
2022/04/13 08:21:27;;;;;;;8.43;4.03;;;;;;;;;;6123487;28;20450;-89
2022/04/13 08:24:27;;;;;;;7.90;4.20;;;;;;;;;;6125926;28;20070;-89
2022/04/13 08:27:28;;;;;;;7.23;4.13;;;;;;;;;;6146605;28;20022;-89
2022/04/13 08:30:28;;;;;;;10.37;4.53;;;;;;;;;;6134112;28;20026;-90
2022/04/13 08:33:28;;;;;;;8.67;4.53;;;;;;;;;;6142623;28;20039;-90
2022/04/13 08:36:28;;;;;;;7.57;4.43;;;;;;;;;;6120943;29;20183;-90
2022/04/13 08:39:29;;;;;;;10.67;4.53;;;;;;;;;;6114533;29;20031;-90
2022/04/13 08:42:48;;;;;;;7.30;4.17;;;;;;;;;;6108114;29;20370;-90
2022/04/13 08:45:55;;;;;;;5.57;3.05;;;;;;;;;;6117224;29;20392;-90
2022/04/13 08:48:56;;;;;;;8.40;4.40;;;;;;;;;;6109273;29;20039;-90
2022/04/13 08:51:59;;;;;;;6.90;4.38;;;;;;;;;;6126274;29;20027;-90
2022/04/13 08:55:05;;;;;;;9.20;4.72;;;;;;;;;;6118079;29;20142;-90
2022/04/13 08:58:19;;;;;;;8.55;4.20;;;;;;;;;;6101738;29;20035;-90
2022/04/13 09:01:25;;;;;;;8.68;4.55;;;;;;;;;;6106416;29;20036;-90
2022/04/13 09:04:28;;;;;;;5.55;3.97;;;;;;;;;;6110658;29;20396;-90
2022/04/13 09:07:31;;;;;;;7.85;4.32;;;;;;;;;;6113965;29;20145;-89
2022/04/13 09:10:32;;;;;;;6.07;3.50;;;;;;;;;;6111389;29;20036;-89
2022/04/13 09:13:35;;;;;;;9.27;4.37;;;;;;;;;;6118390;29;20496;-89
2022/04/13 09:16:36;;;;;;;9.30;4.85;;;;;;;;;;6109940;29;20769;-89
2022/04/13 09:19:37;;;;;;;7.57;5.03;;;;;;;;;;6103051;29;20027;-90
2022/04/13 09:22:38;;;;;;;7.18;3.97;;;;;;;;;;6101185;29;20047;-89
2022/04/13 09:25:40;;;;;;;9.68;5.30;;;;;;;;;;6100414;29;20425;-90
2022/04/13 09:28:41;;;;;;;9.80;4.82;;;;;;;;;;6100649;29;20475;-89
2022/04/13 09:31:41;;;;;;;8.07;4.70;;;;;;;;;;6100075;29;20115;-89
2022/04/13 09:34:41;;;;;;;11.63;4.57;;;;;;;;;;6104317;29;20055;-89
2022/04/13 09:37:42;;;;;;;9.87;4.47;;;;;;;;;;6128103;29;20038;-89
2022/04/13 09:40:43;;;;;;;8.05;4.55;;;;;;;;;;6122689;29;20027;-89
2022/04/13 09:43:52;;;;;;;9.30;4.50;;;;;;;;;;6132979;29;20502;-89
2022/04/13 09:46:52;;;;;;;8.23;4.18;;;;;;;;;;6130289;29;20027;-89
2022/04/13 09:49:53;;;;;;;12.63;4.50;;;;;;;;;;6147597;29;20023;-89
2022/04/13 09:52:55;;;;;;;8.75;4.35;;;;;;;;;;6131032;29;20391;-89
2022/04/13 09:55:56;;;;;;;8.32;4.55;;;;;;;;;;6148198;28;20027;-89
2022/04/13 09:58:57;;;;;;;8.13;3.67;;;;;;;;;;6130250;29;20054;-89
2022/04/13 10:01:57;;;;;;;8.40;4.33;;;;;;;;;;6118775;29;20027;-89
2022/04/13 10:04:58;;;;;;;9.20;3.93;;;;;;;;;;6130158;29;20785;-89
2022/04/13 10:08:02;;;;;;;9.40;5.13;;;;;;;;;;6137800;28;20049;-89
2022/04/13 10:11:07;;;;;;;10.73;4.50;;;;;;;;;;6138127;28;20459;-89
2022/04/13 10:14:07;;;;;;;11.40;4.50;;;;;;;;;;6131365;29;20198;-89
2022/04/13 10:17:08;;;;;;;11.30;5.13;;;;;;;;;;6128816;29;20452;-89
2022/04/13 10:20:09;;;;;;;7.53;4.13;;;;;;;;;;6129273;29;20467;-89
2022/04/13 10:23:09;;;;;;;10.77;5.57;;;;;;;;;;6129444;29;20027;-89
2022/04/13 10:26:10;;;;;;;9.93;4.50;;;;;;;;;;6131667;29;20615;-89
2022/04/13 10:29:14;;;;;;;10.37;5.33;;;;;;;;;;6146579;29;20030;-89
2022/04/13 10:32:24;;;;;;;10.50;5.43;;;;;;;;;;6138169;29;20487;-89
2022/04/13 10:35:26;;;;;;;9.32;4.60;;;;;;;;;;6086276;29;1250626;-89
2022/04/13 10:38:26;;;;;;;9.38;4.38;;;;;;;;;;6129971;29;20027;-89
2022/04/13 10:41:27;;;;;;;28.83;16.77;;;;;;;;;;6131209;28;20497;-89
2022/04/13 10:44:47;;;;;;;9.63;5.33;;;;;;;;;;6131951;29;20054;-89
2022/04/13 10:47:57;;;;;;;11.60;6.43;;;;;;;;;;6143830;28;20039;-89
2022/04/13 10:51:02;;;;;;;7.68;4.13;;;;;;;;;;6147951;28;20029;-89
2022/04/13 10:54:03;;;;;;;8.82;5.22;;;;;;;;;;6127307;28;20463;-89
2022/04/13 10:57:05;;;;;;;10.57;5.88;;;;;;;;;;6128829;29;20027;-89
2022/04/13 11:00:06;;;;;;;6.97;4.70;;;;;;;;;;6130894;29;20031;-89
2022/04/13 11:03:06;;;;;;;6.97;3.75;;;;;;;;;;6130535;29;20038;-89
2022/04/13 11:06:08;;;;;;;8.33;4.93;;;;;;;;;;6130446;29;20239;-89
2022/04/13 11:09:08;;;;;;;;;;;;;;;;;;6130492;29;20267;-89
2022/04/13 11:12:09;;;;;;;8.32;3.60;;;;;;;;;;6129549;28;19911;-89
2022/04/13 11:15:09;;;;;;;7.70;4.13;;;;;;;;;;6127682;29;20046;-90
2022/04/13 11:18:11;;;;;;;10.97;3.90;;;;;;;;;;6147007;29;20027;-89
2022/04/13 11:21:11;;;;;;;7.68;4.00;;;;;;;;;;6129343;29;20031;-90
2022/04/13 11:24:30;;;;;;;7.73;3.97;;;;;;;;;;6131475;28;20388;-89
2022/04/13 11:27:48;;;;;;;9.93;5.63;;;;;;;;;;6114388;29;20011;-89
2022/04/13 11:31:08;;;;;;;8.43;4.22;;;;;;;;;;6130387;29;20126;-89
2022/04/13 11:34:08;;;;;;;8.63;4.50;;;;;;;;;;6146684;28;20015;-89
2022/04/13 11:37:19;;;;;;;10.77;3.77;;;;;;;;;;6128713;29;20457;-89
2022/04/13 11:40:21;;;;;;;8.10;4.00;;;;;;;;;;6137137;29;20023;-89
2022/04/13 11:43:21;;;;;;;9.80;4.80;;;;;;;;;;6129139;29;20020;-90
2022/04/13 11:46:35;;;;;;;8.67;4.83;;;;;;;;;;6129577;29;20441;-89
2022/04/13 11:49:36;;;;;;;11.13;5.05;;;;;;;;;;6148755;28;20521;-89
2022/04/13 11:52:46;;;;;;;10.37;4.57;;;;;;;;;;6139589;29;20031;-89
2022/04/13 11:55:47;;;;;;;9.10;4.32;;;;;;;;;;6130044;29;20046;-90
2022/04/13 11:58:48;;;;;;;8.75;4.32;;;;;;;;;;6128674;28;20027;-89
2022/04/13 12:01:52;;;;;;;7.30;4.53;;;;;;;;;;6133142;29;20026;-90
2022/04/13 12:04:58;;;;;;;13.75;4.25;;;;;;;;;;6133397;29;20587;-90
2022/04/13 12:07:59;;;;;;;12.90;4.35;;;;;;;;;;6149537;29;20475;-89
2022/04/13 12:11:01;;;;;;;7.77;4.20;;;;;;;;;;6133517;29;20026;-89
2022/04/13 12:14:01;;;;;;;8.82;3.97;;;;;;;;;;6133702;29;20030;-90
2022/04/13 12:17:02;;;;;;;8.93;4.57;;;;;;;;;;6130643;28;20023;-89
2022/04/13 12:20:02;;;;;;;;;;;;;;;;;;6158305;28;20451;-89
2022/04/13 12:23:15;;;;;;;10.07;4.57;;;;;;;;;;6135820;29;19917;-89
2022/04/13 12:26:15;;;;;;;6.50;4.55;;;;;;;;;;6122069;28;20073;-90
2022/04/13 12:29:22;;;;;;;10.50;5.50;;;;;;;;;;6135753;28;20015;-89
2022/04/13 12:32:22;;;;;;;11.32;4.88;;;;;;;;;;6156140;28;20015;-89
2022/04/13 12:35:23;;;;;;;8.27;3.93;;;;;;;;;;6158089;28;20062;-90
2022/04/13 12:38:31;;;;;;;9.27;4.33;;;;;;;;;;6148625;28;20201;-89
2022/04/13 12:41:31;;;;;;;8.52;4.70;;;;;;;;;;6154731;28;20489;-90
2022/04/13 12:44:32;;;;;;;8.97;3.90;;;;;;;;;;6136448;28;20106;-90
2022/04/13 12:47:32;;;;;;;7.90;4.33;;;;;;;;;;6154335;28;20021;-90
2022/04/13 12:50:32;;;;;;;12.97;5.17;;;;;;;;;;6139886;28;20023;-90
2022/04/13 12:53:43;;;;;;;10.97;4.47;;;;;;;;;;6151268;28;20027;-90
2022/04/13 12:56:47;;;;;;;10.77;5.23;;;;;;;;;;6121458;29;20027;-90
2022/04/13 13:00:19;;;;;;;10.90;4.25;;;;;;;;;;6138770;29;20155;-90
2022/04/13 13:03:21;;;;;;;7.00;4.07;;;;;;;;;;6074795;29;20425;-90
2022/04/13 13:06:29;;;;;;;9.07;3.95;;;;;;;;;;6130699;28;20039;-90
2022/04/13 13:09:40;;;;;;;9.57;4.10;;;;;;;;;;6148233;29;20383;-89
2022/04/13 13:12:43;;;;;;;;;;;;;;;;;;6136989;28;20059;-89
2022/04/13 13:15:49;;;;;;;9.20;4.40;;;;;;;;;;6134922;28;20001;-90
2022/04/13 13:19:05;;;;;;;8.95;4.07;;;;;;;;;;6131460;29;20015;-90
2022/04/13 13:22:27;;;;;;;8.50;4.00;;;;;;;;;;6134921;29;20026;-90
2022/04/13 13:25:47;;;;;;;8.10;4.88;;;;;;;;;;6115956;29;20054;-90
2022/04/13 13:28:49;;;;;;;14.38;5.13;;;;;;;;;;6123881;29;20030;-90
2022/04/13 13:31:50;;;;;;;9.75;4.55;;;;;;;;;;6128176;29;20410;-90
2022/04/13 13:34:53;;;;;;;7.77;3.50;;;;;;;;;;6146058;28;20164;-89
2022/04/13 13:37:54;;;;;;;9.13;4.55;;;;;;;;;;6147613;29;20066;-89
2022/04/13 13:40:56;;;;;;;12.07;5.13;;;;;;;;;;6136344;29;20031;-89
2022/04/13 13:43:57;;;;;;;9.30;4.68;;;;;;;;;;6143765;29;20063;-89
2022/04/13 13:46:58;;;;;;;7.80;5.10;;;;;;;;;;6147857;28;20782;-90
2022/04/13 13:50:06;;;;;;;13.57;6.28;;;;;;;;;;6145974;28;20510;-90
2022/04/13 13:53:07;;;;;;;9.57;4.93;;;;;;;;;;6131950;29;20475;-90
2022/04/13 13:56:09;;;;;;;7.68;4.75;;;;;;;;;;6130210;29;20019;-89
2022/04/13 13:59:10;;;;;;;9.85;5.40;;;;;;;;;;6153185;28;20024;-90
2022/04/13 14:02:10;;;;;;;7.10;4.33;;;;;;;;;;6149539;28;20019;-89
2022/04/13 14:05:12;;;;;;;11.27;5.50;;;;;;;;;;6154530;28;20356;-89
2022/04/13 14:08:12;;;;;;;;;;;;;;;;;;6170992;28;20029;-89
2022/04/13 14:11:12;;;;;;;9.45;4.63;;;;;;;;;;6142881;29;19919;-89
2022/04/13 14:14:12;;;;;;;10.63;5.87;;;;;;;;;;6129391;28;20051;-89
2022/04/13 14:17:13;;;;;;;10.83;5.63;;;;;;;;;;6131106;29;20027;-89
2022/04/13 14:20:14;;;;;;;13.67;5.83;;;;;;;;;;6132344;28;20019;-89
2022/04/13 14:23:14;;;;;;;10.73;5.35;;;;;;;;;;6130963;28;20033;-89
2022/04/13 14:26:14;;;;;;;9.37;4.40;;;;;;;;;;6136149;28;20007;-89
2022/04/13 14:29:14;;;;;;;11.97;5.73;;;;;;;;;;6140549;28;20147;-89
2022/04/13 14:32:15;;;;;;;12.37;6.33;;;;;;;;;;6147375;29;20030;-89
2022/04/13 14:35:18;;;;;;;9.53;4.83;;;;;;;;;;6152587;28;20046;-90
2022/04/13 14:38:18;;;;;;;13.35;4.85;;;;;;;;;;6150671;28;20089;-89
2022/04/13 14:41:19;;;;;;;9.20;5.43;;;;;;;;;;6136243;28;20027;-89
2022/04/13 14:44:19;;;;;;;11.57;4.80;;;;;;;;;;6131022;28;20069;-89
2022/04/13 14:47:21;;;;;;;13.30;5.63;;;;;;;;;;6136172;28;20030;-89
2022/04/13 14:50:21;;;;;;;11.15;4.63;;;;;;;;;;6108243;29;20020;-89
2022/04/13 14:53:21;;;;;;;8.53;4.70;;;;;;;;;;6125152;28;20130;-89
2022/04/13 14:56:23;;;;;;;11.17;5.43;;;;;;;;;;6163730;28;20055;-89
2022/04/13 14:59:26;;;;;;;10.02;5.40;;;;;;;;;;6172146;28;20050;-89
2022/04/13 15:02:27;;;;;;;11.40;5.25;;;;;;;;;;6154261;28;20023;-89
2022/04/13 15:05:27;;;;;;;12.27;6.27;;;;;;;;;;6155173;28;20026;-89
2022/04/13 15:08:27;;;;;;;10.13;4.87;;;;;;;;;;6149602;28;20023;-89
2022/04/13 15:11:27;;;;;;;11.57;6.47;;;;;;;;;;6145617;28;20038;-89
2022/04/13 15:14:29;;;;;;;11.27;5.60;;;;;;;;;;6132044;28;20122;-88
2022/04/13 15:17:29;;;;;;;11.73;5.72;;;;;;;;;;6129520;28;20019;-90
2022/04/13 15:20:29;;;;;;;10.30;5.67;;;;;;;;;;6145695;28;20382;-89
2022/04/13 15:23:33;;;;;;;12.63;6.03;;;;;;;;;;6124552;29;20027;-89
2022/04/13 15:26:35;;;;;;;11.65;6.07;;;;;;;;;;6133948;28;20074;-89
2022/04/13 15:29:35;;;;;;;11.88;5.72;;;;;;;;;;6151673;28;20066;-89
2022/04/13 15:32:35;;;;;;;7.97;5.43;;;;;;;;;;6142342;28;20019;-89
2022/04/13 15:35:36;;;;;;;12.57;6.20;;;;;;;;;;6140522;28;20050;-89
2022/04/13 15:38:36;;;;;;;8.83;5.67;;;;;;;;;;6144025;28;20033;-89
2022/04/13 15:41:42;;;;;;;10.37;5.87;;;;;;;;;;6160558;28;20041;-89
2022/04/13 15:44:43;;;;;;;9.38;5.53;;;;;;;;;;6152382;28;20046;-89
2022/04/13 15:47:43;;;;;;;13.17;5.03;;;;;;;;;;6131228;29;20027;-89
2022/04/13 15:50:44;;;;;;;10.00;5.30;;;;;;;;;;6134061;28;20023;-89
2022/04/13 15:53:44;;;;;;;10.40;5.55;;;;;;;;;;6141818;28;20090;-89
2022/04/13 15:56:45;;;;;;;12.93;5.57;;;;;;;;;;6134205;28;20394;-89
2022/04/13 15:59:46;;;;;;;10.87;7.00;;;;;;;;;;6132749;29;20114;-90
2022/04/13 16:02:49;;;;;;;11.13;5.72;;;;;;;;;;6130820;29;20043;-90
2022/04/13 16:05:49;;;;;;;11.07;5.25;;;;;;;;;;6132877;29;20019;-90
2022/04/13 16:08:49;;;;;;;13.53;6.33;;;;;;;;;;6150734;29;20019;-89
2022/04/13 16:11:50;;;;;;;10.87;5.60;;;;;;;;;;6133549;29;20019;-89
2022/04/13 16:14:50;;;;;;;10.13;5.43;;;;;;;;;;6133315;29;20023;-89
2022/04/13 16:17:51;;;;;;;9.00;5.37;;;;;;;;;;6135530;28;20467;-89
2022/04/13 16:20:51;;;;;;;14.20;6.13;;;;;;;;;;6148013;28;20118;-89
2022/04/13 16:23:53;;;;;;;12.77;5.72;;;;;;;;;;6148021;29;20027;-89
2022/04/13 16:26:53;;;;;;;12.85;7.38;;;;;;;;;;6132844;29;20377;-88
2022/04/13 16:29:53;;;;;;;10.33;6.07;;;;;;;;;;6134463;29;20019;-89
2022/04/13 16:32:53;;;;;;;11.63;6.87;;;;;;;;;;6151725;29;20466;-89
2022/04/13 16:35:55;;;;;;;17.00;6.87;;;;;;;;;;6134467;29;20170;-89
2022/04/13 16:38:55;;;;;;;12.68;8.13;;;;;;;;;;6150928;29;20130;-89
2022/04/13 16:41:55;;;;;;;14.57;7.38;;;;;;;;;;6134340;29;20549;-90
2022/04/13 16:44:58;;;;;;;16.55;7.80;;;;;;;;;;6149864;28;20018;-91
2022/04/13 16:47:59;;;;;;;;;;;;;;;;;;6129217;29;20042;-91
2022/04/13 16:51:01;;;;;;;15.13;8.95;;;;;;;;;;6132399;28;20676;-90
2022/04/13 16:54:02;;;;;;;14.35;7.20;;;;;;;;;;6131075;29;20106;-91
2022/04/13 16:57:03;;;;;;;13.93;8.25;;;;;;;;;;6138141;28;20058;-90
2022/04/13 17:00:04;;;;;;;15.40;8.50;;;;;;;;;;6136265;29;20039;-90
2022/04/13 17:03:05;;;;;;;17.85;9.82;;;;;;;;;;6133494;29;20388;-90
2022/04/13 17:06:05;;;;;;;16.58;9.23;;;;;;;;;;6133288;29;20016;-90
2022/04/13 17:09:06;;;;;;;17.33;9.90;;;;;;;;;;6131466;29;20085;-90
2022/04/13 17:12:06;;;;;;;18.83;11.07;;;;;;;;;;6137719;28;20019;-90
2022/04/13 17:15:08;;;;;;;15.35;9.32;;;;;;;;;;6148081;28;20023;-90
2022/04/13 17:18:09;;;;;;;;;;;;;;;;;;6151794;29;20019;-91
2022/04/13 17:21:09;;;;;;;20.92;10.93;;;;;;;;;;6134049;28;19914;-90
2022/04/13 17:24:10;;;;;;;17.52;10.55;;;;;;;;;;6135476;28;20027;-90
2022/04/13 17:27:10;;;;;;;17.98;9.43;;;;;;;;;;6129056;29;20238;-90
2022/04/13 17:30:11;;;;;;;16.30;9.80;;;;;;;;;;6130340;29;20426;-90
2022/04/13 17:33:12;;;;;;;20.98;10.70;;;;;;;;;;6131784;29;20030;-90
2022/04/13 17:36:12;;;;;;;20.40;11.47;;;;;;;;;;6115541;29;20135;-90
2022/04/13 17:39:13;;;;;;;19.83;11.10;;;;;;;;;;6102995;29;20350;-90
2022/04/13 17:42:14;;;;;;;22.42;13.55;;;;;;;;;;6103381;29;20072;-90
2022/04/13 17:45:16;;;;;;;23.35;14.07;;;;;;;;;;6101738;29;20016;-91
2022/04/13 17:48:16;;;;;;;31.70;18.00;;;;;;;;;;6104816;29;20017;-91
2022/04/13 17:51:17;;;;;;;27.05;15.32;;;;;;;;;;6088813;29;20072;-91
2022/04/13 17:54:17;;;;;;;32.10;17.92;;;;;;;;;;6104665;29;20028;-91